createdAt,value
2022-10-07T00:03:30.432Z,23.67
2022-10-07T00:08:37.343Z,24.77
2022-10-07T00:13:42.302Z,24.10
2022-10-07T00:18:46.050Z,23.20
2022-10-07T00:23:52.092Z,22.67
2022-10-07T00:28:55.550Z,22.38
2022-10-07T00:33:59.924Z,22.65
2022-10-07T00:39:07.139Z,23.63
2022-10-07T00:44:36.863Z,21.15
2022-10-07T00:49:45.030Z,22.02
2022-10-07T00:54:53.300Z,22.48
2022-10-07T00:59:57.951Z,24.07
2022-10-07T01:05:04.422Z,24.35
2022-10-07T01:10:11.737Z,23.33
2022-10-07T01:15:24.559Z,23.80
2022-10-07T01:20:35.880Z,23.33
2022-10-07T01:25:59.538Z,23.77
2022-10-07T01:31:07.608Z,23.52
2022-10-07T01:36:15.994Z,23.67
2022-10-07T01:41:21.848Z,24.73
2022-10-07T01:46:28.946Z,25.27
2022-10-07T01:51:38.878Z,24.65
2022-10-07T01:56:58.726Z,27.43
2022-10-07T02:02:12.545Z,26.33
2022-10-07T02:07:29.696Z,25.73
2022-10-07T02:12:39.284Z,25.42
2022-10-07T02:17:54.097Z,28.52
2022-10-07T02:23:00.886Z,27.88
2022-10-07T02:28:07.408Z,29.95
2022-10-07T02:33:15.355Z,29.70
2022-10-07T02:38:19.768Z,31.80
2022-10-07T02:43:31.036Z,33.65
2022-10-07T02:48:42.173Z,35.80
2022-10-07T02:53:49.416Z,34.10
2022-10-07T02:58:53.835Z,34.20
2022-10-07T03:04:24.614Z,37.45
2022-10-07T03:09:29.610Z,36.30
2022-10-07T03:14:35.801Z,36.22
2022-10-07T03:19:41.528Z,34.33
2022-10-07T03:24:44.922Z,32.58
2022-10-07T03:29:48.953Z,35.72
2022-10-07T03:34:54.388Z,31.83
2022-10-07T03:39:58.197Z,32.63
2022-10-07T03:45:01.644Z,29.85
2022-10-07T03:50:08.801Z,33.85
2022-10-07T03:55:12.711Z,30.77
2022-10-07T04:00:17.967Z,27.40
2022-10-07T04:05:29.541Z,25.48
2022-10-07T04:10:35.423Z,26.10
2022-10-07T04:15:38.933Z,25.52
2022-10-07T04:20:43.786Z,26.42
2022-10-07T04:25:48.785Z,27.27
2022-10-07T04:30:55.634Z,26.90
2022-10-07T04:36:07.461Z,25.52
2022-10-07T04:41:17.030Z,27.67
2022-10-07T04:46:20.982Z,23.48
2022-10-07T04:51:36.886Z,25.67
2022-10-07T04:56:40.876Z,22.80
2022-10-07T05:01:47.763Z,142.02
2022-10-07T05:06:52.640Z,38.08
2022-10-07T05:11:56.377Z,50.97
2022-10-07T05:17:00.702Z,41.28
2022-10-07T05:22:10.019Z,31.92
2022-10-07T05:27:14.779Z,54.17
2022-10-07T05:32:19.591Z,27.52
2022-10-07T05:37:24.737Z,21.60
2022-10-07T05:42:28.186Z,21.13
2022-10-07T05:47:34.390Z,21.65
2022-10-07T05:52:40.742Z,20.85
2022-10-07T05:57:44.717Z,19.73
2022-10-07T06:02:49.592Z,18.23
2022-10-07T06:07:54.551Z,19.45
2022-10-07T06:13:09.963Z,18.42
2022-10-07T06:18:16.546Z,16.33
2022-10-07T06:23:22.118Z,15.63
2022-10-07T06:28:26.130Z,15.10
2022-10-07T06:33:29.670Z,15.38
2022-10-07T06:38:35.233Z,14.35
2022-10-07T06:43:38.983Z,12.15
2022-10-07T06:48:46.178Z,7.35
2022-10-07T06:53:54.663Z,7.05
2022-10-07T06:58:59.830Z,7.45
2022-10-07T07:04:10.879Z,7.40
2022-10-07T07:09:15.864Z,7.47
2022-10-07T07:14:22.188Z,9.32
2022-10-07T07:19:33.459Z,8.45
2022-10-07T07:24:38.900Z,9.57
2022-10-07T07:29:43.259Z,8.43
2022-10-07T07:34:48.096Z,9.07
2022-10-07T07:39:58.812Z,10.23
2022-10-07T07:45:02.404Z,9.55
2022-10-07T07:50:08.297Z,8.70
2022-10-07T07:55:13.314Z,8.07
2022-10-07T08:00:18.500Z,7.85
2022-10-07T08:05:35.857Z,8.18
2022-10-07T08:10:42.951Z,7.63
2022-10-07T08:15:46.930Z,7.55
2022-10-07T08:20:58.319Z,8.73
2022-10-07T08:26:04.826Z,7.93
2022-10-07T08:31:12.115Z,7.82
2022-10-07T08:36:17.852Z,7.97
2022-10-07T08:41:36.354Z,7.65
2022-10-07T08:46:48.576Z,8.20
2022-10-07T08:51:59.502Z,7.60
2022-10-07T08:57:13.547Z,7.43
2022-10-07T09:02:28.813Z,8.15
2022-10-07T09:07:36.743Z,8.15
2022-10-07T09:12:48.460Z,7.63
2022-10-07T09:17:57.660Z,7.70
2022-10-07T09:23:04.342Z,7.18
2022-10-07T09:28:13.841Z,7.10
2022-10-07T09:33:21.696Z,6.95
2022-10-07T09:38:34.051Z,7.05
2022-10-07T09:44:00.549Z,7.20
2022-10-07T09:49:07.408Z,7.28
2022-10-07T09:54:22.332Z,7.35
2022-10-07T09:59:29.135Z,7.63
2022-10-07T10:04:35.620Z,6.97
2022-10-07T10:09:39.303Z,6.55
2022-10-07T10:14:51.330Z,7.13
2022-10-07T10:19:54.854Z,7.13
2022-10-07T10:25:16.534Z,6.00
2022-10-07T10:30:23.462Z,8.20
2022-10-07T10:35:29.978Z,5.03
2022-10-07T10:40:39.079Z,5.25
2022-10-07T10:45:52.370Z,4.72
2022-10-07T10:51:02.730Z,4.90
2022-10-07T10:56:21.033Z,4.97
2022-10-07T11:01:34.956Z,5.65
2022-10-07T11:06:41.575Z,4.80
2022-10-07T11:11:45.791Z,5.03
2022-10-07T11:16:54.776Z,4.28
2022-10-07T11:22:00.397Z,4.00
2022-10-07T11:27:14.952Z,3.85
2022-10-07T11:32:28.659Z,3.42
2022-10-07T11:37:38.462Z,3.90
2022-10-07T11:42:45.846Z,3.78
2022-10-07T11:47:56.085Z,3.90
2022-10-07T11:53:07.250Z,4.03
2022-10-07T11:58:24.850Z,4.43
2022-10-07T12:03:50.802Z,4.07
2022-10-07T12:09:20.126Z,2.97
2022-10-07T12:14:43.102Z,3.05
2022-10-07T12:19:48.220Z,3.47
2022-10-07T12:25:29.348Z,2.60
2022-10-07T12:30:44.211Z,3.47
2022-10-07T12:35:54.241Z,2.25
2022-10-07T12:41:20.920Z,3.60
2022-10-07T12:46:27.129Z,4.60
2022-10-07T12:51:37.874Z,3.95
2022-10-07T12:56:44.260Z,3.22
2022-10-07T13:02:10.561Z,3.47
2022-10-07T13:07:49.728Z,4.18
2022-10-07T13:12:56.754Z,3.20
2022-10-07T13:18:10.829Z,6.65
2022-10-07T13:23:20.061Z,3.03
2022-10-07T13:28:32.179Z,3.90
2022-10-07T13:33:36.290Z,3.47
2022-10-07T13:38:39.696Z,3.60
2022-10-07T13:43:45.962Z,4.65
2022-10-07T13:48:49.533Z,3.80
2022-10-07T13:53:58.208Z,4.18
2022-10-07T13:59:04.566Z,3.95
2022-10-07T14:04:26.619Z,3.90
2022-10-07T14:09:46.108Z,4.05
2022-10-07T14:14:55.966Z,3.90
2022-10-07T14:20:04.074Z,4.75
2022-10-07T14:25:46.122Z,4.63
2022-10-07T14:31:35.928Z,4.03
2022-10-07T14:37:01.441Z,4.80
2022-10-07T14:42:06.296Z,4.93
2022-10-07T14:47:14.784Z,3.95
2022-10-07T14:52:24.983Z,4.40
2022-10-07T14:57:28.702Z,4.22
2022-10-07T15:02:33.814Z,4.57
2022-10-07T15:07:37.326Z,4.70
2022-10-07T15:12:40.816Z,4.93
2022-10-07T15:17:46.597Z,4.47
2022-10-07T15:22:51.687Z,4.72
2022-10-07T15:27:55.609Z,4.25
2022-10-07T15:33:00.689Z,4.80
2022-10-07T15:38:04.087Z,4.38
2022-10-07T15:43:07.720Z,4.60
2022-10-07T15:48:12.715Z,6.03
2022-10-07T15:53:16.565Z,7.60
2022-10-07T15:58:20.780Z,7.38
2022-10-07T16:03:25.884Z,6.55
2022-10-07T16:08:31.247Z,7.43
2022-10-07T16:13:36.654Z,6.13
2022-10-07T16:18:43.849Z,5.53
2022-10-07T16:23:47.875Z,5.78
2022-10-07T16:29:10.470Z,5.47
2022-10-07T16:34:16.654Z,6.53
2022-10-07T16:39:21.502Z,6.88
2022-10-07T16:44:25.710Z,7.00
2022-10-07T16:49:32.252Z,6.75
2022-10-07T16:54:36.164Z,6.53
2022-10-07T16:59:39.878Z,6.82
2022-10-07T17:04:44.823Z,6.72
2022-10-07T17:09:48.592Z,7.47
2022-10-07T17:14:51.989Z,7.72
2022-10-07T17:19:57.294Z,7.10
2022-10-07T17:25:03.212Z,7.20
2022-10-07T17:30:08.354Z,8.45
2022-10-07T17:35:13.262Z,8.60
2022-10-07T17:40:16.786Z,9.10
2022-10-07T17:45:20.518Z,7.72
2022-10-07T17:50:25.423Z,8.18
2022-10-07T17:55:28.988Z,8.25
2022-10-07T18:00:32.587Z,9.50
2022-10-07T18:05:37.524Z,9.20
2022-10-07T18:10:40.870Z,9.13
2022-10-07T18:15:44.254Z,10.75
2022-10-07T18:20:49.089Z,10.10
2022-10-07T18:25:52.663Z,13.45
2022-10-07T18:30:56.209Z,13.43
2022-10-07T18:36:07.086Z,12.88
2022-10-07T18:41:12.765Z,12.90
2022-10-07T18:46:19.209Z,11.85
2022-10-07T18:51:24.272Z,14.38
2022-10-07T18:56:27.703Z,15.15
2022-10-07T19:01:31.224Z,94.93
2022-10-07T19:06:40.398Z,43.65
2022-10-07T19:11:43.874Z,16.87
2022-10-07T19:16:49.963Z,74.88
2022-10-07T19:21:56.870Z,48.92
2022-10-07T19:27:00.331Z,33.20
2022-10-07T19:32:07.970Z,14.90
2022-10-07T19:37:13.455Z,14.27
2022-10-07T19:42:18.487Z,14.07
2022-10-07T19:47:22.226Z,14.30
2022-10-07T19:52:28.405Z,14.82
2022-10-07T19:57:31.754Z,15.07
2022-10-07T20:02:35.363Z,16.35
2022-10-07T20:07:40.159Z,15.30
2022-10-07T20:12:44.309Z,16.00
2022-10-07T20:17:49.636Z,15.77
2022-10-07T20:22:56.065Z,15.70
2022-10-07T20:27:59.494Z,16.00
2022-10-07T20:33:03.030Z,16.60
2022-10-07T20:38:07.765Z,15.98
2022-10-07T20:43:11.537Z,17.95
2022-10-07T20:48:14.868Z,18.67
2022-10-07T20:53:20.112Z,18.20
2022-10-07T20:58:23.776Z,19.10
2022-10-07T21:03:29.829Z,19.15
2022-10-07T21:08:34.717Z,20.65
2022-10-07T21:13:38.357Z,19.73
2022-10-07T21:18:41.673Z,21.10
2022-10-07T21:23:46.495Z,20.10
2022-10-07T21:28:49.937Z,22.95
2022-10-07T21:33:54.199Z,23.73
2022-10-07T21:39:00.147Z,22.17
2022-10-07T21:44:06.295Z,24.33
2022-10-07T21:49:10.299Z,23.50
2022-10-07T21:54:17.664Z,29.25
2022-10-07T21:59:27.053Z,24.88
2022-10-07T22:04:30.864Z,25.13
2022-10-07T22:09:35.874Z,23.15
2022-10-07T22:14:39.606Z,22.23
2022-10-07T22:19:43.034Z,30.10
2022-10-07T22:24:47.992Z,28.50
2022-10-07T22:29:51.719Z,25.58
2022-10-07T22:35:12.831Z,26.25
2022-10-07T22:40:17.922Z,23.58
2022-10-07T22:45:21.512Z,25.45
2022-10-07T22:50:25.175Z,26.05
2022-10-07T22:55:30.002Z,32.92
2022-10-07T23:00:34.599Z,35.00
2022-10-07T23:05:38.257Z,33.97
2022-10-07T23:10:43.034Z,30.92
2022-10-07T23:15:55.984Z,29.83
2022-10-07T23:21:00.685Z,28.60
2022-10-07T23:26:06.493Z,29.55
2022-10-07T23:31:11.946Z,28.98
2022-10-07T23:36:20.167Z,28.90
2022-10-07T23:41:26.859Z,29.40
2022-10-07T23:46:35.585Z,27.85
2022-10-07T23:51:39.120Z,30.02
2022-10-07T23:56:43.863Z,29.02
